createdAt,value
2019-02-12T00:02:05.032Z,52.40
2019-02-12T00:04:59.675Z,52.20
2019-02-12T00:07:54.170Z,52.70
2019-02-12T00:10:48.089Z,52.60
2019-02-12T00:13:42.305Z,52.70
2019-02-12T00:16:36.417Z,52.60
2019-02-12T00:19:30.613Z,52.50
2019-02-12T00:22:25.432Z,52.60
2019-02-12T00:25:19.700Z,52.80
2019-02-12T00:28:14.269Z,52.90
2019-02-12T00:31:09.237Z,53.00
2019-02-12T00:34:03.757Z,52.80
2019-02-12T00:36:58.570Z,52.50
2019-02-12T00:39:52.826Z,51.90
2019-02-12T00:42:47.091Z,51.80
2019-02-12T00:45:41.560Z,52.10
2019-02-12T00:48:36.214Z,52.00
2019-02-12T00:51:30.423Z,51.30
2019-02-12T00:54:24.598Z,51.30
2019-02-12T00:57:19.396Z,52.00
2019-02-12T01:00:15.428Z,50.90
2019-02-12T01:03:09.991Z,50.80
2019-02-12T01:06:04.429Z,51.00
2019-02-12T01:08:59.078Z,51.10
2019-02-12T01:11:53.631Z,51.10
2019-02-12T01:14:47.981Z,51.10
2019-02-12T01:17:42.450Z,51.50
2019-02-12T01:20:37.044Z,51.40
2019-02-12T01:23:31.638Z,52.00
2019-02-12T01:26:26.036Z,51.40
2019-02-12T01:29:20.603Z,51.30
2019-02-12T01:32:15.713Z,51.50
2019-02-12T01:35:12.720Z,51.80
2019-02-12T01:38:07.391Z,51.60
2019-02-12T01:41:03.335Z,51.80
2019-02-12T01:43:58.001Z,51.70
2019-02-12T01:46:52.785Z,51.50
2019-02-12T01:49:47.553Z,51.60
2019-02-12T01:52:42.869Z,51.60
2019-02-12T01:55:37.223Z,51.70
2019-02-12T01:58:32.326Z,51.60
2019-02-12T02:01:27.108Z,51.40
2019-02-12T02:04:22.608Z,51.70
2019-02-12T02:11:38.564Z,53.10
2019-02-12T02:14:34.678Z,52.60
2019-02-12T02:17:35.318Z,52.30
2019-02-12T02:20:36.203Z,52.70
2019-02-12T02:23:41.143Z,51.90
2019-02-12T02:26:48.050Z,51.70
2019-02-12T02:30:30.201Z,51.60
2019-02-12T02:33:26.202Z,51.50
2019-02-12T02:36:19.267Z,51.60
2019-02-12T02:39:58.279Z,51.60
2019-02-12T02:42:57.201Z,51.60
2019-02-12T02:46:43.026Z,51.60
2019-02-12T02:50:31.991Z,51.60
2019-02-12T02:58:35.654Z,51.60
2019-02-12T03:01:46.515Z,51.80
2019-02-12T03:11:55.851Z,52.00
2019-02-12T03:15:14.598Z,51.90
2019-02-12T03:18:51.761Z,51.80
2019-02-12T03:30:56.509Z,51.80
2019-02-12T03:31:37.203Z,51.70
2019-02-12T03:34:33.199Z,57.00
2019-02-12T03:37:29.130Z,54.20
2019-02-12T03:40:32.003Z,53.40
2019-02-12T03:43:25.317Z,56.50
2019-02-12T03:46:21.894Z,53.50
2019-02-12T03:49:15.331Z,55.90
2019-02-12T03:52:12.889Z,57.30
2019-02-12T03:55:09.505Z,55.20
2019-02-12T03:58:04.573Z,56.30
2019-02-12T04:00:59.639Z,59.80
2019-02-12T04:03:54.779Z,57.50
2019-02-12T04:06:52.734Z,53.80
2019-02-12T04:09:50.118Z,54.20
2019-02-12T04:12:45.874Z,52.50
2019-02-12T04:15:43.418Z,56.20
2019-02-12T04:18:43.484Z,57.50
2019-02-12T04:21:47.313Z,58.60
2019-02-12T04:24:41.709Z,57.50
2019-02-12T04:27:36.652Z,57.40
2019-02-12T04:30:31.247Z,57.80
2019-02-12T04:33:25.966Z,56.30
2019-02-12T04:36:21.344Z,55.00
2019-02-12T04:39:15.825Z,55.70
2019-02-12T04:42:10.153Z,54.60
2019-02-12T04:45:04.656Z,56.00
2019-02-12T04:47:58.995Z,56.40
2019-02-12T04:50:53.504Z,54.80
2019-02-12T04:53:47.713Z,55.40
2019-02-12T04:56:45.181Z,53.30
2019-02-12T04:59:39.888Z,57.60
2019-02-12T05:02:34.440Z,58.80
2019-02-12T05:05:29.138Z,55.00
2019-02-12T05:08:23.921Z,56.30
2019-02-12T05:11:18.370Z,61.20
2019-02-12T05:14:13.440Z,59.70
2019-02-12T05:17:08.940Z,58.30
2019-02-12T05:20:13.378Z,57.50
2019-02-12T05:23:10.026Z,58.10
2019-02-12T05:26:45.403Z,60.50
2019-02-12T05:30:37.470Z,59.80
2019-02-12T05:35:44.225Z,58.00
2019-02-12T05:37:06.781Z,60.00
2019-02-12T05:40:02.201Z,61.10
2019-02-12T05:43:12.497Z,60.50
2019-02-12T05:49:17.312Z,59.70
2019-02-12T05:52:24.742Z,60.30
2019-02-12T05:58:47.736Z,56.20
2019-02-12T06:01:43.193Z,58.80
2019-02-12T06:04:38.050Z,62.40
2019-02-12T06:07:36.791Z,60.20
2019-02-12T06:10:32.570Z,62.00
2019-02-12T06:13:59.763Z,62.40
2019-02-12T06:17:07.477Z,63.40
2019-02-12T06:20:02.208Z,57.40
2019-02-12T06:23:16.562Z,57.40
2019-02-12T06:29:38.196Z,56.60
2019-02-12T06:32:42.245Z,58.40
2019-02-12T06:38:39.215Z,55.20
2019-02-12T06:41:38.590Z,54.40
2019-02-12T06:44:40.036Z,54.90
2019-02-12T06:50:49.217Z,55.20
2019-02-12T06:53:51.239Z,56.20
2019-02-12T06:56:50.186Z,56.20
2019-02-12T06:59:50.387Z,54.00
2019-02-12T07:03:26.750Z,53.70
2019-02-12T07:07:04.746Z,54.40
2019-02-12T07:10:21.168Z,53.60
2019-02-12T07:13:25.747Z,53.00
2019-02-12T07:16:53.018Z,52.10
2019-02-12T07:21:28.580Z,54.00
2019-02-12T07:24:30.370Z,52.40
2019-02-12T07:28:30.270Z,52.40
2019-02-12T07:32:45.969Z,52.70
2019-02-12T07:40:21.583Z,55.50
2019-02-12T07:44:01.487Z,58.80
2019-02-12T07:51:33.172Z,54.40
2019-02-12T07:58:52.900Z,57.60
2019-02-12T08:06:45.572Z,54.10
2019-02-12T08:10:35.811Z,56.50
2019-02-12T08:13:55.666Z,57.00
2019-02-12T08:17:35.233Z,55.00
2019-02-12T08:21:42.934Z,55.40
2019-02-12T08:25:01.042Z,53.90
2019-02-12T08:28:42.883Z,52.90
2019-02-12T08:32:09.935Z,52.60
2019-02-12T08:35:57.359Z,53.80
2019-02-12T08:39:27.100Z,53.80
2019-02-12T08:46:39.271Z,52.90
2019-02-12T08:49:57.727Z,54.20
2019-02-12T08:53:20.642Z,53.40
2019-02-12T08:57:13.927Z,52.90
2019-02-12T09:00:32.144Z,52.20
2019-02-12T09:03:49.439Z,54.10
2019-02-12T09:07:31.624Z,53.00
2019-02-12T09:11:03.432Z,52.60
2019-02-12T09:14:22.860Z,52.20
2019-02-12T09:18:11.729Z,51.50
2019-02-12T09:24:43.304Z,55.50
2019-02-12T09:28:15.178Z,58.50
2019-02-12T09:32:19.364Z,53.20
2019-02-12T09:42:59.305Z,54.40
2019-02-12T09:46:13.658Z,56.60
2019-02-12T09:49:57.553Z,58.80
2019-02-12T09:57:20.606Z,52.40
2019-02-12T10:01:09.968Z,52.00
2019-02-12T10:05:00.312Z,55.50
2019-02-12T10:09:17.808Z,56.60
2019-02-12T10:13:08.522Z,53.50
2019-02-12T10:16:48.440Z,55.20
2019-02-12T10:19:52.114Z,53.30
2019-02-12T10:23:31.049Z,56.60
2019-02-12T10:26:42.846Z,53.90
2019-02-12T10:30:07.981Z,58.00
2019-02-12T10:33:11.091Z,59.30
2019-02-12T10:38:07.327Z,52.50
2019-02-12T10:43:22.752Z,52.50
2019-02-12T10:46:39.653Z,52.00
2019-02-12T10:49:37.805Z,51.50
2019-02-12T10:56:02.516Z,52.70
2019-02-12T10:59:16.205Z,57.00
2019-02-12T11:02:20.106Z,58.60
2019-02-12T11:05:19.754Z,54.30
2019-02-12T11:08:18.545Z,52.30
2019-02-12T11:11:25.373Z,52.00
2019-02-12T11:14:28.003Z,51.80
2019-02-12T11:17:28.889Z,52.70
2019-02-12T11:20:39.406Z,52.00
2019-02-12T11:26:28.108Z,52.00
2019-02-12T11:29:24.294Z,56.70
2019-02-12T11:32:18.216Z,53.80
2019-02-12T11:35:37.050Z,52.90
2019-02-12T11:41:44.637Z,52.60
2019-02-12T11:44:52.884Z,52.50
2019-02-12T11:47:48.106Z,52.50
2019-02-12T11:50:44.549Z,52.80
2019-02-12T11:54:15.265Z,52.90
2019-02-12T11:57:17.065Z,52.60
2019-02-12T12:00:34.139Z,52.30
2019-02-12T12:03:37.942Z,53.50
2019-02-12T12:06:35.646Z,53.40
2019-02-12T12:09:34.222Z,52.40
2019-02-12T12:12:23.321Z,52.10
2019-02-12T12:15:21.229Z,52.70
2019-02-12T12:18:10.078Z,52.30
2019-02-12T12:21:08.645Z,52.90
2019-02-12T12:24:07.987Z,51.90
2019-02-12T12:27:07.116Z,52.80
2019-02-12T12:30:02.158Z,52.20
2019-02-12T12:32:57.563Z,52.30
2019-02-12T12:36:01.428Z,52.20
2019-02-12T12:39:10.434Z,52.60
2019-02-12T12:42:09.726Z,52.90
2019-02-12T12:45:08.397Z,53.40
2019-02-12T12:48:04.253Z,52.10
2019-02-12T12:51:17.044Z,52.20
2019-02-12T12:54:14.486Z,53.10
2019-02-12T12:57:09.865Z,52.20
2019-02-12T13:00:05.911Z,52.50
2019-02-12T13:03:05.175Z,52.70
2019-02-12T13:06:01.228Z,53.20
2019-02-12T13:08:57.982Z,52.90
2019-02-12T13:11:54.515Z,52.20
2019-02-12T13:14:51.703Z,52.60
2019-02-12T13:17:47.556Z,52.90
2019-02-12T13:20:51.342Z,52.30
2019-02-12T13:23:47.743Z,52.30
2019-02-12T13:26:42.808Z,52.40
2019-02-12T13:29:37.066Z,52.70
2019-02-12T13:32:31.405Z,52.50
2019-02-12T13:35:25.715Z,52.30
2019-02-12T13:38:20.363Z,52.30
2019-02-12T13:41:14.863Z,52.30
2019-02-12T13:44:09.007Z,53.10
2019-02-12T13:47:03.563Z,52.80
2019-02-12T13:49:59.323Z,52.10
2019-02-12T13:52:53.663Z,52.40
2019-02-12T13:55:49.575Z,52.30
2019-02-12T13:58:45.295Z,52.20
2019-02-12T14:01:39.941Z,52.20
2019-02-12T14:04:34.438Z,52.20
2019-02-12T14:07:28.572Z,52.20
2019-02-12T14:10:23.190Z,52.70
2019-02-12T14:13:17.721Z,52.80
2019-02-12T14:16:12.109Z,52.70
2019-02-12T14:19:07.385Z,52.90
2019-02-12T14:22:04.263Z,52.30
2019-02-12T14:24:58.989Z,52.20
2019-02-12T14:27:53.542Z,52.20
2019-02-12T14:30:49.033Z,52.20
2019-02-12T14:33:43.427Z,52.30
2019-02-12T14:36:38.396Z,52.20
2019-02-12T14:39:33.265Z,52.80
2019-02-12T14:42:27.672Z,52.70
2019-02-12T14:45:21.976Z,52.20
2019-02-12T14:48:16.267Z,53.00
2019-02-12T14:53:57.345Z,52.30
2019-02-12T14:56:52.406Z,52.20
2019-02-12T14:59:46.917Z,52.80
2019-02-12T15:02:41.484Z,52.40
2019-02-12T15:05:39.555Z,52.20
2019-02-12T15:08:34.200Z,52.50
2019-02-12T15:11:28.611Z,52.20
2019-02-12T15:14:23.117Z,52.40
2019-02-12T15:17:17.721Z,52.40
2019-02-12T15:20:12.972Z,52.40
2019-02-12T15:23:08.335Z,52.40
2019-02-12T15:26:01.738Z,52.30
2019-02-12T15:28:55.875Z,52.30
2019-02-12T15:31:50.383Z,52.30
2019-02-12T15:34:45.072Z,52.20
2019-02-12T15:37:40.333Z,52.40
2019-02-12T15:40:35.027Z,52.30
2019-02-12T15:43:30.644Z,52.50
2019-02-12T15:46:24.998Z,52.70
2019-02-12T15:49:19.832Z,52.30
2019-02-12T15:52:15.590Z,52.60
2019-02-12T15:55:11.192Z,52.40
2019-02-12T15:58:07.881Z,52.80
2019-02-12T16:01:02.357Z,52.60
2019-02-12T16:04:00.232Z,52.90
2019-02-12T16:06:57.774Z,52.70
2019-02-12T16:09:55.021Z,52.60
2019-02-12T16:12:51.415Z,52.60
2019-02-12T16:15:47.131Z,53.10
2019-02-12T16:18:43.433Z,53.30
2019-02-12T16:21:38.440Z,53.10
2019-02-12T16:24:32.791Z,53.30
2019-02-12T16:27:27.569Z,52.80
2019-02-12T16:30:23.527Z,53.80
2019-02-12T16:33:19.114Z,52.50
2019-02-12T16:36:14.359Z,53.70
2019-02-12T16:39:11.042Z,53.20
2019-02-12T16:42:06.063Z,53.20
2019-02-12T16:45:00.534Z,53.20
2019-02-12T16:47:54.971Z,53.40
2019-02-12T16:50:49.462Z,53.40
2019-02-12T16:53:44.273Z,53.50
2019-02-12T16:56:38.560Z,53.20
2019-02-12T16:59:33.212Z,53.20
2019-02-12T17:02:27.393Z,53.10
2019-02-12T17:05:21.840Z,53.50
2019-02-12T17:08:15.953Z,53.50
2019-02-12T17:11:10.835Z,53.80
2019-02-12T17:14:05.572Z,53.10
2019-02-12T17:17:00.143Z,53.60
2019-02-12T17:19:55.077Z,54.50
2019-02-12T17:22:49.973Z,53.80
2019-02-12T17:25:44.805Z,53.40
2019-02-12T17:28:39.569Z,53.50
2019-02-12T17:31:33.623Z,53.30
2019-02-12T17:34:28.319Z,53.30
2019-02-12T17:37:23.296Z,54.10
2019-02-12T17:40:18.182Z,53.50
2019-02-12T17:43:13.041Z,53.40
2019-02-12T17:46:07.746Z,53.70
2019-02-12T17:49:02.791Z,53.90
2019-02-12T17:51:57.410Z,54.50
2019-02-12T17:54:52.282Z,53.80
2019-02-12T17:58:03.026Z,53.50
2019-02-12T18:00:57.209Z,53.80
2019-02-12T18:03:51.397Z,53.60
2019-02-12T18:06:45.586Z,53.10
2019-02-12T18:09:39.891Z,53.40
2019-02-12T18:12:34.466Z,53.80
2019-02-12T18:15:28.530Z,54.20
2019-02-12T18:18:23.038Z,54.60
2019-02-12T18:21:17.825Z,54.70
2019-02-12T18:24:12.607Z,54.00
2019-02-12T18:27:07.234Z,53.80
2019-02-12T18:30:01.922Z,53.60
2019-02-12T18:32:56.715Z,54.10
2019-02-12T18:35:50.800Z,54.40
2019-02-12T18:38:46.587Z,55.00
2019-02-12T18:41:40.780Z,55.40
2019-02-12T18:44:35.365Z,54.20
2019-02-12T18:47:29.647Z,54.10
2019-02-12T18:50:24.174Z,55.40
2019-02-12T18:53:18.414Z,55.00
2019-02-12T18:56:12.616Z,55.90
2019-02-12T18:59:09.522Z,55.40
2019-02-12T19:02:03.939Z,55.30
2019-02-12T19:04:58.374Z,55.30
2019-02-12T19:07:52.485Z,56.00
2019-02-12T19:10:46.958Z,54.70
2019-02-12T19:13:41.142Z,55.30
2019-02-12T19:16:35.735Z,54.90
2019-02-12T19:19:30.170Z,55.60
2019-02-12T19:22:24.397Z,55.30
2019-02-12T19:25:18.687Z,54.50
2019-02-12T19:28:13.233Z,54.50
2019-02-12T19:31:07.922Z,55.20
2019-02-12T19:34:02.420Z,55.50
2019-02-12T19:36:57.177Z,55.80
2019-02-12T19:39:51.671Z,55.20
2019-02-12T19:42:44.993Z,54.90
2019-02-12T19:45:39.657Z,54.50
2019-02-12T19:48:34.338Z,55.10
2019-02-12T19:51:28.850Z,55.40
2019-02-12T19:54:23.860Z,55.10
2019-02-12T19:57:18.409Z,56.00
2019-02-12T20:00:17.928Z,55.40
2019-02-12T20:03:12.087Z,54.70
2019-02-12T20:06:06.617Z,55.30
2019-02-12T20:09:01.290Z,56.00
2019-02-12T20:11:56.693Z,55.50
2019-02-12T20:14:51.159Z,55.20
2019-02-12T20:17:45.846Z,54.50
2019-02-12T20:20:41.349Z,54.80
2019-02-12T20:23:36.026Z,55.10
2019-02-12T20:26:30.735Z,55.40
2019-02-12T20:29:25.279Z,54.70
2019-02-12T20:32:19.625Z,54.60
2019-02-12T20:35:15.324Z,54.10
2019-02-12T20:38:09.513Z,54.40
2019-02-12T20:41:04.071Z,54.00
2019-02-12T20:43:58.323Z,54.40
2019-02-12T20:46:53.136Z,54.60
2019-02-12T20:49:47.523Z,54.70
2019-02-12T20:52:42.058Z,55.90
2019-02-12T20:55:36.348Z,54.80
2019-02-12T20:58:30.613Z,55.00
2019-02-12T21:01:24.804Z,55.00
2019-02-12T21:04:18.992Z,55.20
2019-02-12T21:10:03.310Z,55.10
2019-02-12T21:12:57.412Z,55.30
2019-02-12T21:15:51.707Z,54.80
2019-02-12T21:18:45.969Z,56.00
2019-02-12T21:21:40.167Z,55.20
2019-02-12T21:24:34.275Z,55.70
2019-02-12T21:27:28.301Z,56.20
2019-02-12T21:30:24.110Z,56.60
2019-02-12T21:33:18.718Z,57.40
2019-02-12T21:36:13.027Z,55.50
2019-02-12T21:39:08.478Z,57.10
2019-02-12T21:42:02.917Z,56.90
2019-02-12T21:44:57.479Z,57.40
2019-02-12T21:47:51.543Z,57.20
2019-02-12T21:50:45.795Z,58.00
2019-02-12T21:53:40.097Z,58.00
2019-02-12T21:56:34.424Z,57.00
2019-02-12T21:59:28.955Z,57.20
2019-02-12T22:02:23.263Z,56.50
2019-02-12T22:05:18.067Z,56.00
2019-02-12T22:08:12.378Z,57.80
2019-02-12T22:11:07.007Z,56.00
2019-02-12T22:14:01.185Z,55.90
2019-02-12T22:16:55.526Z,55.60
2019-02-12T22:19:49.756Z,56.10
2019-02-12T22:22:44.160Z,55.70
2019-02-12T22:25:38.352Z,55.10
2019-02-12T22:28:32.865Z,54.80
2019-02-12T22:31:27.046Z,55.00
2019-02-12T22:34:21.216Z,55.40
2019-02-12T22:37:15.674Z,55.00
2019-02-12T22:40:10.775Z,55.30
2019-02-12T22:43:05.172Z,55.10
2019-02-12T22:45:59.594Z,54.90
2019-02-12T22:48:53.979Z,55.60
2019-02-12T22:51:48.465Z,55.20
2019-02-12T22:54:42.610Z,55.00
2019-02-12T22:57:36.778Z,54.60
2019-02-12T23:00:55.128Z,54.80
2019-02-12T23:03:50.624Z,54.70
2019-02-12T23:06:45.774Z,54.30
2019-02-12T23:09:40.450Z,54.70
2019-02-12T23:12:34.760Z,54.70
2019-02-12T23:15:29.285Z,54.60
2019-02-12T23:18:23.927Z,55.40
2019-02-12T23:21:18.426Z,55.00
2019-02-12T23:24:12.862Z,55.00
2019-02-12T23:27:07.318Z,55.00
2019-02-12T23:32:55.132Z,54.90
2019-02-12T23:35:49.610Z,56.10
2019-02-12T23:38:44.254Z,55.10
2019-02-12T23:41:38.691Z,54.90
2019-02-12T23:44:33.374Z,55.30
2019-02-12T23:47:27.798Z,55.50
2019-02-12T23:50:22.467Z,55.50
2019-02-12T23:53:17.172Z,56.30
2019-02-12T23:56:12.233Z,55.40
2019-02-12T23:59:06.355Z,56.60
